This is the latest recevied weather packets stored in our database for station/object DF7ER-12. If no packets are shown the sender has not sent any weather packets the latest 10 day(s).
| Time | Temp. | Humidity | Pressure | Rain* | Wind** | Luminosity | Snow |
|---|---|---|---|---|---|---|---|
| 1777367607 | 14.44° C | 44% | 1016 hPa | - | - | - | - |
| 1777367307 | 13.89° C | 46% | 1016 hPa | - | - | - | - |
| 1777367006 | 14.44° C | 46% | 1015.9 hPa | - | - | - | - |
| 1777366707 | 13.89° C | 46% | 1015.9 hPa | - | - | - | - |
| 1777366406 | 14.44° C | 46% | 1015.9 hPa | - | - | - | - |
| 1777366106 | 13.89° C | 47% | 1015.9 hPa | - | - | - | - |
| 1777365715 | 14.44° C | 48% | 1016 hPa | - | - | - | - |
| 1777365416 | 13.33° C | 48% | 1015.8 hPa | - | - | - | - |
| 1777365116 | 13.89° C | 49% | 1015.9 hPa | - | - | - | - |
| 1777364815 | 13.89° C | 50% | 1015.9 hPa | - | - | - | - |
| 1777364515 | 13.33° C | 50% | 1015.8 hPa | - | - | - | - |
| 1777364215 | 13.33° C | 51% | 1015.8 hPa | - | - | - | - |
| 1777363915 | 13.33° C | 50% | 1015.7 hPa | - | - | - | - |
| 1777363616 | 13.33° C | 50% | 1015.8 hPa | - | - | - | - |
| 1777363315 | 13.33° C | 51% | 1015.9 hPa | - | - | - | - |
| 1777363016 | 12.22° C | 52% | 1015.9 hPa | - | - | - | - |
| 1777362716 | 11.67° C | 52% | 1015.8 hPa | - | - | - | - |
| 1777362416 | 12.22° C | 53% | 1015.8 hPa | - | - | - | - |
| 1777362128 | 12.22° C | 54% | 1015.8 hPa | - | - | - | - |
| 1777361816 | 11.67° C | 54% | 1015.6 hPa | - | - | - | - |
| 1777361516 | 11.67° C | 55% | 1015.7 hPa | - | - | - | - |
| 1777361215 | 11.67° C | 56% | 1015.7 hPa | - | - | - | - |
| 1777360916 | 11.11° C | 56% | 1015.6 hPa | - | - | - | - |
| 1777360616 | 10.56° C | 57% | 1015.5 hPa | - | - | - | - |
| 1777360316 | 10.56° C | 57% | 1015.5 hPa | - | - | - | - |
* Rain since midnight (hover to see other rain measurements)
** Current wind speed in m/s (hover to see current wind gust speed)